createdAt,value
2023-01-11T03:55:39.092Z,61.79
2023-01-11T03:58:06.177Z,59.18
2023-01-11T04:00:33.199Z,58.74
2023-01-11T04:03:00.659Z,58.10
2023-01-11T04:05:27.637Z,58.07
2023-01-11T04:07:54.561Z,57.78
2023-01-11T04:10:21.478Z,58.01
2023-01-11T04:12:48.861Z,57.21
2023-01-11T04:15:16.771Z,56.97
2023-01-11T04:17:45.118Z,56.78
2023-01-11T04:20:12.637Z,56.82
2023-01-11T04:22:39.624Z,56.91
2023-01-11T04:25:06.944Z,57.08
2023-01-11T04:27:33.868Z,57.17
2023-01-11T04:30:00.819Z,57.08
2023-01-11T04:32:27.823Z,56.98
2023-01-11T04:34:54.755Z,57.36
2023-01-11T04:37:21.695Z,56.91
2023-01-11T04:39:48.620Z,57.31
2023-01-11T04:42:18.594Z,57.45
2023-01-11T04:44:48.188Z,57.51
2023-01-11T04:47:16.263Z,57.69
2023-01-11T04:49:43.192Z,57.65
2023-01-11T04:52:11.417Z,57.43
2023-01-11T04:54:38.783Z,57.29
2023-01-11T04:57:06.016Z,57.17
2023-01-11T04:59:32.988Z,57.17
2023-01-11T05:01:59.911Z,56.82
2023-01-11T05:04:26.959Z,56.76
2023-01-11T05:06:53.938Z,56.79
2023-01-11T05:09:21.107Z,56.73
2023-01-11T05:11:48.234Z,56.52
2023-01-11T05:14:17.665Z,56.47
2023-01-11T05:17:10.131Z,56.37
2023-01-11T05:19:50.361Z,56.24
2023-01-11T05:22:17.304Z,56.12
2023-01-11T05:24:44.422Z,56.12
2023-01-11T05:27:11.419Z,55.98
2023-01-11T05:29:38.420Z,55.79
2023-01-11T05:32:05.955Z,55.68
2023-01-11T05:34:32.930Z,55.56
2023-01-11T05:36:59.958Z,55.42
2023-01-11T05:39:27.117Z,55.58
2023-01-11T05:41:54.105Z,55.55
2023-01-11T05:44:39.904Z,55.58
2023-01-11T05:47:06.927Z,55.87
2023-01-11T05:49:34.005Z,55.88
2023-01-11T05:52:01.147Z,55.60
2023-01-11T05:54:28.195Z,55.28
2023-01-11T05:56:57.238Z,55.24
2023-01-11T05:59:26.959Z,55.16
2023-01-11T06:01:54.076Z,55.25
2023-01-11T06:04:21.282Z,55.30
2023-01-11T06:06:48.609Z,55.48
2023-01-11T06:09:15.768Z,55.34
2023-01-11T06:11:42.808Z,55.10
2023-01-11T06:14:09.847Z,54.95
2023-01-11T06:16:36.889Z,55.24
2023-01-11T06:19:03.912Z,55.10
2023-01-11T06:21:30.952Z,55.36
2023-01-11T06:23:58.104Z,55.20
2023-01-11T06:26:25.106Z,55.35
2023-01-11T06:28:52.201Z,55.32
2023-01-11T06:31:19.415Z,55.35
2023-01-11T06:33:47.202Z,55.33
2023-01-11T06:36:14.506Z,55.32
2023-01-11T06:38:41.720Z,55.23
2023-01-11T06:41:08.932Z,54.85
2023-01-11T06:43:36.849Z,54.82
2023-01-11T06:46:04.105Z,55.04
2023-01-11T06:48:31.257Z,55.08
2023-01-11T06:50:58.704Z,55.05
2023-01-11T06:53:28.494Z,54.99
2023-01-11T06:55:57.193Z,54.79
2023-01-11T06:58:24.724Z,54.77
2023-01-11T07:00:52.952Z,54.88
2023-01-11T07:03:20.880Z,54.84
2023-01-11T07:05:47.933Z,54.92
2023-01-11T07:08:14.991Z,54.57
2023-01-11T07:10:43.848Z,54.89
2023-01-11T07:13:16.378Z,54.58
2023-01-11T07:15:44.789Z,54.95
2023-01-11T07:18:12.971Z,54.94
2023-01-11T07:20:41.081Z,54.88
2023-01-11T07:23:08.251Z,54.75
2023-01-11T07:25:35.936Z,54.89
2023-01-11T07:28:05.249Z,55.08
2023-01-11T07:30:44.596Z,54.84
2023-01-11T07:33:19.178Z,55.19
2023-01-11T07:35:48.837Z,55.18
2023-01-11T07:38:15.930Z,55.01
2023-01-11T07:40:42.903Z,55.11
2023-01-11T07:43:18.606Z,55.09
2023-01-11T07:45:49.688Z,55.06
2023-01-11T07:48:25.267Z,55.08
2023-01-11T07:50:53.112Z,55.00
2023-01-11T07:53:20.480Z,55.07
2023-01-11T12:05:39.067Z,54.80
2023-01-11T12:08:06.297Z,52.51
2023-01-11T12:10:33.843Z,52.10
2023-01-11T12:13:02.380Z,51.77
2023-01-11T12:15:30.662Z,51.64
2023-01-11T12:18:22.520Z,51.84
2023-01-11T12:20:49.779Z,51.70
2023-01-11T12:23:22.020Z,51.78
2023-01-11T12:26:18.742Z,51.72
2023-01-11T12:29:07.781Z,51.98
2023-01-11T12:31:43.942Z,52.14
2023-01-11T12:34:43.052Z,52.05
2023-01-11T12:37:09.996Z,51.99
2023-01-11T12:40:13.832Z,52.16
2023-01-11T12:42:49.948Z,52.40
2023-01-11T12:45:26.744Z,52.35
2023-01-11T12:47:54.831Z,52.28
2023-01-11T12:50:34.240Z,52.14
2023-01-11T12:53:13.573Z,52.53
2023-01-11T12:56:00.426Z,52.75
2023-01-11T12:58:45.019Z,53.07
2023-01-11T13:01:15.142Z,53.23
2023-01-11T13:04:12.071Z,52.91
2023-01-11T13:06:53.965Z,53.09
2023-01-11T13:09:46.836Z,53.29
2023-01-11T13:12:35.105Z,53.49
2023-01-11T13:15:21.087Z,53.66
2023-01-11T13:17:54.112Z,53.56
2023-01-11T13:21:02.494Z,53.55
2023-01-11T13:23:39.531Z,53.74
2023-01-11T13:26:16.058Z,53.68
2023-01-11T13:28:44.672Z,53.70
2023-01-11T13:31:12.794Z,53.94
2023-01-11T13:33:42.507Z,53.90
2023-01-11T13:36:22.706Z,53.73
2023-01-11T13:38:55.788Z,53.64
2023-01-11T13:41:30.718Z,53.53
2023-01-11T13:44:10.089Z,53.47
2023-01-11T13:47:01.311Z,53.56
2023-01-11T13:49:37.845Z,53.83
2023-01-11T13:52:12.709Z,54.23
2023-01-11T13:54:53.914Z,54.39
2023-01-11T13:58:05.410Z,54.76
2023-01-11T14:00:39.319Z,54.94
2023-01-11T14:03:30.737Z,55.16
2023-01-11T14:06:04.143Z,55.41
2023-01-11T14:09:06.409Z,55.72
2023-01-11T14:11:33.499Z,55.93
2023-01-11T14:14:23.683Z,55.99
2023-01-11T14:16:50.669Z,56.37
2023-01-11T14:19:44.515Z,56.54
2023-01-11T14:22:31.355Z,56.86
2023-01-11T14:25:21.895Z,57.14
2023-01-11T14:28:07.660Z,57.10
2023-01-11T14:30:50.211Z,57.45
2023-01-11T14:33:29.281Z,57.51
2023-01-11T14:36:15.103Z,57.47
2023-01-11T14:38:51.622Z,57.44
2023-01-11T14:41:27.956Z,57.64
2023-01-11T14:44:04.281Z,57.46
2023-01-11T14:46:49.874Z,57.50
2023-01-11T14:49:44.900Z,57.44
2023-01-11T14:52:14.883Z,57.38
2023-01-11T14:54:45.759Z,57.42
2023-01-11T14:58:02.123Z,57.61
2023-01-11T15:00:29.171Z,57.58
2023-01-11T15:03:08.856Z,57.47
2023-01-11T15:05:43.426Z,57.63
2023-01-11T15:08:24.165Z,57.54
2023-01-11T15:10:58.044Z,57.60
2023-01-11T15:13:30.821Z,57.33
2023-01-11T15:16:39.997Z,57.42
2023-01-11T15:19:12.965Z,57.44
2023-01-11T15:21:41.721Z,57.58
2023-01-11T15:24:21.408Z,57.58
2023-01-11T15:26:48.671Z,57.68
2023-01-11T15:29:24.545Z,57.78
2023-01-11T15:31:55.057Z,57.55
2023-01-11T15:34:31.242Z,57.90
2023-01-11T15:37:01.617Z,57.88
2023-01-11T15:39:40.946Z,57.91
2023-01-11T15:42:37.186Z,57.93
2023-01-11T15:45:30.097Z,58.06
2023-01-11T15:48:26.648Z,58.30
2023-01-11T15:51:10.888Z,58.31
2023-01-11T15:54:01.245Z,58.30
2023-01-11T15:56:47.059Z,58.47
2023-01-11T15:59:25.150Z,58.71
2023-01-11T16:02:14.089Z,58.66
2023-01-11T16:04:56.852Z,58.89
